Time;durP1;ratioP1;P1;durP2;ratioP2;P2;SDS_P1;SDS_P2;PMS_P1;PMS_P2;Temp;Humidity;BMP_temperature;BMP_pressure;BME280_temperature;BME280_humidity;BME280_pressure;Samples;Min_cycle;Max_cycle;Signal;HPM_P1;HPM_P2
2021/05/26 00:01:34;;;;;;;5.03;3.30;;;;;;;;;;4417603;32;20565;-63
2021/05/26 00:04:00;;;;;;;5.73;2.70;;;;;;;;;;4405281;32;20209;-64
2021/05/26 00:06:25;;;;;;;4.57;2.57;;;;;;;;;;4411318;32;20355;-64
2021/05/26 00:08:50;;;;;;;7.37;2.70;;;;;;;;;;4434689;32;20164;-64
2021/05/26 00:11:17;;;;;;;7.70;2.63;;;;;;;;;;4433656;32;20202;-64
2021/05/26 00:13:43;;;;;;;5.53;3.13;;;;;;;;;;4434706;32;20580;-64
2021/05/26 00:16:08;;;;;;;7.07;2.70;;;;;;;;;;4434680;32;20181;-64
2021/05/26 00:18:33;;;;;;;8.70;3.40;;;;;;;;;;4433855;32;20134;-63
2021/05/26 00:20:59;;;;;;;7.83;3.77;;;;;;;;;;4432325;32;20552;-65
2021/05/26 00:23:24;;;;;;;6.20;3.67;;;;;;;;;;4434338;32;20217;-64
2021/05/26 00:25:50;;;;;;;8.80;3.43;;;;;;;;;;4432679;32;20126;-64
2021/05/26 00:28:15;;;;;;;10.47;3.97;;;;;;;;;;4419032;32;20593;-65
2021/05/26 00:30:47;;;;;;;11.00;4.80;;;;;;;;;;4421741;32;20286;-64
2021/05/26 00:33:12;;;;;;;11.83;5.47;;;;;;;;;;4405684;32;20157;-65
2021/05/26 00:35:38;;;;;;;17.57;6.67;;;;;;;;;;4421116;32;20239;-64
2021/05/26 00:38:03;;;;;;;17.07;6.97;;;;;;;;;;4420703;32;20196;-65
2021/05/26 00:40:29;;;;;;;15.20;7.27;;;;;;;;;;4420648;32;20196;-65
2021/05/26 00:42:54;;;;;;;13.47;7.17;;;;;;;;;;4434326;32;20146;-66
2021/05/26 00:45:19;;;;;;;18.83;7.15;;;;;;;;;;4421837;32;20161;-65
2021/05/26 00:47:46;;;;;;;21.33;8.13;;;;;;;;;;4435309;32;20540;-65
2021/05/26 00:50:16;;;;;;;20.83;8.07;;;;;;;;;;4419691;32;20157;-65
2021/05/26 00:52:41;;;;;;;23.70;9.83;;;;;;;;;;4435002;32;20150;-65
2021/05/26 00:55:06;;;;;;;19.40;8.20;;;;;;;;;;4435209;32;20172;-65
2021/05/26 00:57:32;;;;;;;17.13;8.37;;;;;;;;;;4437648;32;20157;-65
2021/05/26 00:59:57;;;;;;;19.93;8.00;;;;;;;;;;4436389;32;20156;-65
2021/05/26 01:02:22;;;;;;;20.80;8.97;;;;;;;;;;4437719;32;20171;-65
2021/05/26 01:04:47;;;;;;;20.70;9.03;;;;;;;;;;4437917;32;20165;-66
2021/05/26 01:07:12;;;;;;;28.73;10.60;;;;;;;;;;4422556;32;20427;-65
2021/05/26 01:09:38;;;;;;;24.87;9.00;;;;;;;;;;4421885;32;20601;-65
2021/05/26 01:12:04;;;;;;;28.23;11.10;;;;;;;;;;4421671;32;20210;-64
2021/05/26 01:14:29;;;;;;;24.50;10.60;;;;;;;;;;4420713;32;20591;-64
2021/05/26 01:16:54;;;;;;;22.42;10.15;;;;;;;;;;4420432;32;20156;-65
2021/05/26 01:19:19;;;;;;;23.17;10.07;;;;;;;;;;4421591;32;20233;-64
2021/05/26 01:21:50;;;;;;;20.23;11.23;;;;;;;;;;4422479;32;20133;-64
2021/05/26 01:24:15;;;;;;;24.55;11.82;;;;;;;;;;4421863;32;20493;-65
2021/05/26 01:26:40;;;;;;;20.80;10.25;;;;;;;;;;4423231;32;20130;-65
2021/05/26 01:29:06;;;;;;;15.90;7.05;;;;;;;;;;4408870;32;20186;-64
2021/05/26 01:31:31;;;;;;;12.13;5.80;;;;;;;;;;4419968;32;20233;-65
2021/05/26 01:33:56;;;;;;;14.60;4.77;;;;;;;;;;4406676;32;20169;-64
2021/05/26 01:36:21;;;;;;;12.53;4.43;;;;;;;;;;4422909;32;20658;-65
2021/05/26 01:38:46;;;;;;;8.55;3.85;;;;;;;;;;4422406;32;20161;-64
2021/05/26 01:41:11;;;;;;;6.83;3.70;;;;;;;;;;4408845;32;20173;-65
2021/05/26 01:43:37;;;;;;;10.30;4.00;;;;;;;;;;4422698;32;20165;-65
2021/05/26 01:46:02;;;;;;;6.07;3.73;;;;;;;;;;4437461;32;20181;-65
2021/05/26 01:48:27;;;;;;;8.47;4.47;;;;;;;;;;4437057;32;20164;-65
2021/05/26 01:50:53;;;;;;;8.80;3.77;;;;;;;;;;4422249;32;20585;-65
2021/05/26 01:53:18;;;;;;;6.53;3.93;;;;;;;;;;4437781;32;20181;-65
2021/05/26 01:55:43;;;;;;;7.50;3.63;;;;;;;;;;4435652;32;20434;-65
2021/05/26 01:58:08;;;;;;;8.77;4.20;;;;;;;;;;4434993;32;20165;-65
2021/05/26 02:00:34;;;;;;;7.73;3.70;;;;;;;;;;4435026;32;20494;-65
2021/05/26 02:02:59;;;;;;;9.73;3.93;;;;;;;;;;4430272;32;20138;-64
2021/05/26 02:05:24;;;;;;;8.52;3.67;;;;;;;;;;4420900;32;20129;-65
2021/05/26 02:07:52;;;;;;;8.07;4.17;;;;;;;;;;4419290;32;20241;-64
2021/05/26 02:10:17;;;;;;;14.33;4.20;;;;;;;;;;4420902;32;20138;-64
2021/05/26 02:12:44;;;;;;;10.00;3.53;;;;;;;;;;4405090;32;20638;-64
2021/05/26 02:15:11;;;;;;;11.45;4.10;;;;;;;;;;4420658;32;20208;-64
2021/05/26 02:17:36;;;;;;;5.00;3.58;;;;;;;;;;4419819;32;20421;-64
2021/05/26 02:20:02;;;;;;;10.07;3.30;;;;;;;;;;4406502;32;20257;-64
2021/05/26 02:22:27;;;;;;;6.97;2.87;;;;;;;;;;4420189;32;20133;-63
2021/05/26 02:24:53;;;;;;;9.63;3.50;;;;;;;;;;4406527;32;20165;-64
2021/05/26 02:27:18;;;;;;;7.68;3.30;;;;;;;;;;4419423;32;20185;-64
2021/05/26 02:29:43;;;;;;;12.23;3.50;;;;;;;;;;4406947;32;20158;-65
2021/05/26 02:32:09;;;;;;;9.82;4.28;;;;;;;;;;4420979;32;20202;-64
2021/05/26 02:34:34;;;;;;;10.60;3.97;;;;;;;;;;4434085;32;20519;-64
2021/05/26 02:37:00;;;;;;;11.25;3.55;;;;;;;;;;4419695;32;20237;-64
2021/05/26 02:39:25;;;;;;;14.20;4.65;;;;;;;;;;4436251;32;20142;-64
2021/05/26 02:41:50;;;;;;;16.37;4.65;;;;;;;;;;4434826;32;20201;-64
2021/05/26 02:44:16;;;;;;;10.82;4.65;;;;;;;;;;4435051;32;20164;-63
2021/05/26 02:46:41;;;;;;;19.30;5.10;;;;;;;;;;4435126;32;20218;-64
2021/05/26 02:49:06;;;;;;;16.40;4.93;;;;;;;;;;4421214;32;20579;-63
2021/05/26 02:51:32;;;;;;;13.10;4.47;;;;;;;;;;4433213;32;20129;-63
2021/05/26 02:53:57;;;;;;;12.35;4.97;;;;;;;;;;4435175;32;20210;-63
2021/05/26 02:56:23;;;;;;;12.50;4.22;;;;;;;;;;4419637;32;20181;-64
2021/05/26 02:58:48;;;;;;;12.60;4.20;;;;;;;;;;4435070;32;20160;-64
2021/05/26 03:01:13;;;;;;;10.60;3.95;;;;;;;;;;4433450;32;20279;-65
2021/05/26 03:03:38;;;;;;;12.85;4.03;;;;;;;;;;4419402;32;20295;-64
2021/05/26 03:06:03;;;;;;;13.50;4.70;;;;;;;;;;4434803;32;20187;-63
2021/05/26 03:08:29;;;;;;;12.77;4.30;;;;;;;;;;4433758;32;20600;-64
2021/05/26 03:10:56;;;;;;;20.85;4.47;;;;;;;;;;4435477;32;20200;-64
2021/05/26 03:13:22;;;;;;;18.58;5.03;;;;;;;;;;4409356;32;20192;-63
2021/05/26 03:15:47;;;;;;;15.43;5.00;;;;;;;;;;4419185;32;20224;-64
2021/05/26 03:18:12;;;;;;;20.23;5.50;;;;;;;;;;4419552;32;20138;-65
2021/05/26 03:20:37;;;;;;;15.70;5.68;;;;;;;;;;4418463;32;20407;-64
2021/05/26 03:23:03;;;;;;;14.65;5.07;;;;;;;;;;4419672;32;20222;-64
2021/05/26 03:25:28;;;;;;;19.73;5.85;;;;;;;;;;4419883;32;20586;-65
2021/05/26 03:27:53;;;;;;;16.15;5.03;;;;;;;;;;4420601;32;20133;-64
2021/05/26 03:30:19;;;;;;;20.20;5.30;;;;;;;;;;4420339;32;20230;-64
2021/05/26 03:32:44;;;;;;;18.27;5.00;;;;;;;;;;4426758;32;20180;-65
2021/05/26 03:35:11;;;;;;;21.70;4.68;;;;;;;;;;4436365;32;20130;-64
2021/05/26 03:37:37;;;;;;;15.77;5.03;;;;;;;;;;4435040;32;20134;-64
2021/05/26 03:40:03;;;;;;;15.45;5.75;;;;;;;;;;4433903;32;20244;-64
2021/05/26 03:42:28;;;;;;;18.58;5.75;;;;;;;;;;4430916;32;20578;-65
2021/05/26 03:44:53;;;;;;;20.25;5.95;;;;;;;;;;4428343;32;20137;-65
2021/05/26 03:47:18;;;;;;;23.20;6.15;;;;;;;;;;4432898;32;20200;-64
2021/05/26 03:49:44;;;;;;;14.77;5.90;;;;;;;;;;4434464;32;20237;-64
2021/05/26 03:52:09;;;;;;;21.70;5.77;;;;;;;;;;4404726;32;20166;-63
2021/05/26 03:54:35;;;;;;;14.37;5.70;;;;;;;;;;4417212;32;20138;-64
2021/05/26 03:57:02;;;;;;;16.42;5.07;;;;;;;;;;4419871;32;20146;-64
2021/05/26 03:59:27;;;;;;;11.95;4.47;;;;;;;;;;4420195;32;20134;-64
2021/05/26 04:01:53;;;;;;;14.75;4.87;;;;;;;;;;4418097;32;20184;-65
2021/05/26 04:04:18;;;;;;;15.10;5.85;;;;;;;;;;4418209;32;20165;-66
2021/05/26 04:06:43;;;;;;;14.38;4.85;;;;;;;;;;4420229;32;20134;-64
2021/05/26 04:09:08;;;;;;;16.10;5.00;;;;;;;;;;4418180;32;20529;-65
2021/05/26 04:11:33;;;;;;;12.70;4.87;;;;;;;;;;4417642;32;20205;-65
2021/05/26 04:13:58;;;;;;;17.23;5.55;;;;;;;;;;4419413;32;20177;-64
2021/05/26 04:16:24;;;;;;;14.40;5.73;;;;;;;;;;4417844;32;20161;-64
2021/05/26 04:18:49;;;;;;;12.10;5.30;;;;;;;;;;4419252;32;20138;-65
2021/05/26 04:21:14;;;;;;;11.47;5.60;;;;;;;;;;4418585;32;20514;-64
2021/05/26 04:23:40;;;;;;;15.02;6.68;;;;;;;;;;4419167;32;20185;-65
2021/05/26 04:26:05;;;;;;;15.87;6.77;;;;;;;;;;4417917;32;20188;-64
2021/05/26 04:28:30;;;;;;;15.63;6.30;;;;;;;;;;4418190;32;20268;-64
2021/05/26 04:30:55;;;;;;;18.23;6.40;;;;;;;;;;4418541;32;20130;-65
2021/05/26 04:33:20;;;;;;;20.60;8.00;;;;;;;;;;4437560;32;20161;-65
2021/05/26 04:35:46;;;;;;;20.77;8.25;;;;;;;;;;4437357;32;20130;-65
2021/05/26 04:38:14;;;;;;;14.95;6.82;;;;;;;;;;4423849;32;20360;-65
2021/05/26 04:40:39;;;;;;;16.98;6.70;;;;;;;;;;4437449;32;20199;-65
2021/05/26 04:43:05;;;;;;;16.62;6.85;;;;;;;;;;4409024;32;20162;-65
2021/05/26 04:45:30;;;;;;;18.98;6.80;;;;;;;;;;4422664;32;20304;-64
2021/05/26 04:47:55;;;;;;;14.20;7.18;;;;;;;;;;4420298;32;20210;-64
2021/05/26 04:50:21;;;;;;;14.43;7.10;;;;;;;;;;4420008;32;20430;-65
2021/05/26 04:52:46;;;;;;;16.42;7.03;;;;;;;;;;4421373;32;20149;-65
2021/05/26 04:55:11;;;;;;;14.35;6.60;;;;;;;;;;4420997;32;20429;-65
2021/05/26 04:57:37;;;;;;;16.30;7.95;;;;;;;;;;4407591;32;20161;-65
2021/05/26 05:00:03;;;;;;;15.50;7.28;;;;;;;;;;4420581;32;20563;-64
2021/05/26 05:02:28;;;;;;;17.87;7.18;;;;;;;;;;4420412;32;20777;-64
2021/05/26 05:04:54;;;;;;;15.63;6.72;;;;;;;;;;4420191;32;20221;-66
2021/05/26 05:07:19;;;;;;;15.02;7.18;;;;;;;;;;4407755;32;20165;-64
2021/05/26 05:09:44;;;;;;;15.57;8.15;;;;;;;;;;4423516;32;20172;-67
2021/05/26 05:12:09;;;;;;;18.73;7.72;;;;;;;;;;4421968;32;20177;-64
2021/05/26 05:14:34;;;;;;;17.77;7.97;;;;;;;;;;4421033;32;20133;-66
2021/05/26 05:16:59;;;;;;;19.20;8.50;;;;;;;;;;4420249;32;20134;-65
2021/05/26 05:19:25;;;;;;;24.10;7.97;;;;;;;;;;4421965;32;20630;-64
2021/05/26 05:21:50;;;;;;;16.70;7.43;;;;;;;;;;4420195;32;20130;-65
2021/05/26 05:24:15;;;;;;;17.45;8.00;;;;;;;;;;4406945;32;20249;-66
2021/05/26 05:26:40;;;;;;;17.80;8.55;;;;;;;;;;4420631;32;20190;-66
2021/05/26 05:29:05;;;;;;;20.65;9.07;;;;;;;;;;4424813;32;20141;-64
2021/05/26 05:31:31;;;;;;;23.10;10.00;;;;;;;;;;4435301;32;20244;-65
2021/05/26 05:33:57;;;;;;;19.23;9.80;;;;;;;;;;4423231;32;20324;-65
2021/05/26 05:36:22;;;;;;;17.95;9.98;;;;;;;;;;4433353;32;20191;-65
2021/05/26 05:38:47;;;;;;;18.15;8.68;;;;;;;;;;4434563;32;20600;-65
2021/05/26 05:41:12;;;;;;;22.62;11.02;;;;;;;;;;4447408;32;20145;-65
2021/05/26 05:43:37;;;;;;;22.62;9.98;;;;;;;;;;4437613;32;20297;-64
2021/05/26 05:46:03;;;;;;;20.73;9.77;;;;;;;;;;4452141;32;20157;-65
2021/05/26 05:48:28;;;;;;;19.50;10.25;;;;;;;;;;4442111;32;20518;-65
2021/05/26 05:50:53;;;;;;;17.37;9.57;;;;;;;;;;4427511;32;20141;-65
2021/05/26 05:53:18;;;;;;;18.80;8.77;;;;;;;;;;4421475;32;20566;-67
2021/05/26 05:55:43;;;;;;;18.85;9.68;;;;;;;;;;4420746;32;20282;-67
2021/05/26 05:58:10;;;;;;;18.75;10.07;;;;;;;;;;4419406;32;20265;-66
2021/05/26 06:00:37;;;;;;;23.02;11.00;;;;;;;;;;4417657;32;20169;-67
2021/05/26 06:03:02;;;;;;;18.12;10.48;;;;;;;;;;4421825;32;20141;-67
2021/05/26 06:05:28;;;;;;;22.40;11.98;;;;;;;;;;4419698;32;20142;-68
2021/05/26 06:07:53;;;;;;;21.00;11.00;;;;;;;;;;4419695;32;20142;-68
2021/05/26 06:10:18;;;;;;;18.33;10.00;;;;;;;;;;4420235;32;20369;-66
2021/05/26 06:12:43;;;;;;;17.23;11.75;;;;;;;;;;4420142;32;20146;-67
2021/05/26 06:15:09;;;;;;;24.15;11.43;;;;;;;;;;4420732;32;20226;-67
2021/05/26 06:17:34;;;;;;;18.90;10.32;;;;;;;;;;4410071;32;20316;-67
2021/05/26 06:20:02;;;;;;;19.65;11.25;;;;;;;;;;4420901;32;20173;-67
2021/05/26 06:22:27;;;;;;;19.67;10.88;;;;;;;;;;4434943;32;20141;-67
2021/05/26 06:24:52;;;;;;;18.87;11.15;;;;;;;;;;4422239;32;20453;-67
2021/05/26 06:27:17;;;;;;;17.80;11.10;;;;;;;;;;4419852;32;20280;-67
2021/05/26 06:29:43;;;;;;;27.67;10.70;;;;;;;;;;4423759;32;20241;-66
2021/05/26 06:32:08;;;;;;;18.20;10.40;;;;;;;;;;4418888;32;20659;-66
2021/05/26 06:34:33;;;;;;;17.83;10.13;;;;;;;;;;4418893;32;20146;-67
2021/05/26 06:36:59;;;;;;;19.98;11.93;;;;;;;;;;4405275;32;20320;-66
2021/05/26 06:39:24;;;;;;;13.02;9.10;;;;;;;;;;4418343;32;20133;-65
2021/05/26 06:41:49;;;;;;;24.70;10.05;;;;;;;;;;4425364;32;20142;-65
2021/05/26 06:44:14;;;;;;;18.35;9.65;;;;;;;;;;4433514;32;20191;-65
2021/05/26 06:46:40;;;;;;;17.62;9.93;;;;;;;;;;4425041;32;20752;-64
2021/05/26 06:49:05;;;;;;;20.90;9.02;;;;;;;;;;4418565;32;20130;-67
2021/05/26 06:51:30;;;;;;;17.77;9.85;;;;;;;;;;4420100;32;20195;-66
2021/05/26 06:53:56;;;;;;;17.17;8.90;;;;;;;;;;4404615;32;20162;-65
2021/05/26 06:56:21;;;;;;;18.70;8.98;;;;;;;;;;4416842;32;20141;-65
2021/05/26 06:58:46;;;;;;;13.27;7.12;;;;;;;;;;4418876;32;20134;-66
2021/05/26 07:01:11;;;;;;;20.30;9.55;;;;;;;;;;4418462;32;20549;-66
2021/05/26 07:03:36;;;;;;;16.05;8.63;;;;;;;;;;4431480;32;20237;-65
2021/05/26 07:06:02;;;;;;;17.17;7.40;;;;;;;;;;4422116;32;20578;-65
2021/05/26 07:08:27;;;;;;;13.55;6.82;;;;;;;;;;4419349;32;20225;-65
2021/05/26 07:10:52;;;;;;;12.70;6.78;;;;;;;;;;4422228;32;20142;-65
2021/05/26 07:13:17;;;;;;;13.35;6.95;;;;;;;;;;4409147;32;20221;-66
2021/05/26 07:15:43;;;;;;;10.18;6.80;;;;;;;;;;4433860;32;20126;-66
2021/05/26 07:18:09;;;;;;;12.85;7.03;;;;;;;;;;4433617;32;20152;-66
2021/05/26 07:20:34;;;;;;;16.67;7.30;;;;;;;;;;4419259;32;20623;-66
2021/05/26 07:23:00;;;;;;;14.40;6.45;;;;;;;;;;4430235;32;20137;-68
2021/05/26 07:25:25;;;;;;;15.68;6.32;;;;;;;;;;4431894;32;20173;-64
2021/05/26 07:27:51;;;;;;;14.18;6.40;;;;;;;;;;4430533;32;20146;-65
2021/05/26 07:30:17;;;;;;;12.20;6.25;;;;;;;;;;4432334;32;20536;-65
2021/05/26 07:32:42;;;;;;;16.12;6.57;;;;;;;;;;4407485;32;20265;-66
2021/05/26 07:35:08;;;;;;;13.25;6.00;;;;;;;;;;4403956;32;20295;-64
2021/05/26 07:37:33;;;;;;;9.85;6.47;;;;;;;;;;4416455;32;20139;-65
2021/05/26 07:39:58;;;;;;;11.12;6.00;;;;;;;;;;4418980;32;20165;-65
2021/05/26 07:42:23;;;;;;;12.25;6.68;;;;;;;;;;4416992;32;20157;-65
2021/05/26 07:44:48;;;;;;;11.40;6.55;;;;;;;;;;4417698;32;20169;-65
2021/05/26 07:47:14;;;;;;;13.75;6.35;;;;;;;;;;4402891;32;20158;-65
2021/05/26 07:49:39;;;;;;;9.57;5.75;;;;;;;;;;4404084;32;20667;-64
2021/05/26 07:52:08;;;;;;;14.13;5.60;;;;;;;;;;4417054;32;20141;-65
2021/05/26 07:54:33;;;;;;;10.65;5.03;;;;;;;;;;4420698;32;20562;-66
2021/05/26 07:56:59;;;;;;;13.82;6.30;;;;;;;;;;4404886;32;20219;-65
2021/05/26 07:59:25;;;;;;;13.68;6.82;;;;;;;;;;4422895;32;20557;-66
2021/05/26 08:01:50;;;;;;;12.10;6.47;;;;;;;;;;4432422;32;20150;-66
2021/05/26 08:04:16;;;;;;;11.82;6.18;;;;;;;;;;4431435;32;20145;-66
2021/05/26 08:06:41;;;;;;;9.68;4.15;;;;;;;;;;4434059;32;20208;-68
2021/05/26 08:09:06;;;;;;;11.18;4.90;;;;;;;;;;4421161;32;20310;-67
2021/05/26 08:11:31;;;;;;;10.50;3.95;;;;;;;;;;4435912;32;20298;-66
2021/05/26 08:13:57;;;;;;;7.70;3.28;;;;;;;;;;4433684;32;20145;-65
2021/05/26 08:16:23;;;;;;;11.38;3.70;;;;;;;;;;4423196;32;20153;-66
2021/05/26 08:18:48;;;;;;;5.35;3.00;;;;;;;;;;4431013;32;20172;-65
2021/05/26 08:21:15;;;;;;;10.05;3.35;;;;;;;;;;4434814;32;20142;-66
2021/05/26 08:23:40;;;;;;;9.50;4.07;;;;;;;;;;4435945;32;20191;-65
2021/05/26 08:26:11;;;;;;;6.43;3.08;;;;;;;;;;4434406;32;20219;-65
2021/05/26 08:28:36;;;;;;;7.80;3.40;;;;;;;;;;4427067;32;20176;-65
2021/05/26 08:31:01;;;;;;;8.80;3.60;;;;;;;;;;4420014;32;20135;-66
2021/05/26 08:33:26;;;;;;;6.72;2.67;;;;;;;;;;4405301;32;20261;-65
2021/05/26 08:35:51;;;;;;;9.40;3.15;;;;;;;;;;4420737;32;20631;-67
2021/05/26 08:38:17;;;;;;;3.80;2.28;;;;;;;;;;4419325;32;20214;-65
2021/05/26 08:40:42;;;;;;;5.95;2.42;;;;;;;;;;4419966;32;20965;-65
2021/05/26 08:43:07;;;;;;;7.78;2.62;;;;;;;;;;4420630;32;20264;-65
2021/05/26 08:45:32;;;;;;;7.10;2.90;;;;;;;;;;4419941;32;20195;-65
2021/05/26 08:48:02;;;;;;;8.32;3.08;;;;;;;;;;4420368;32;20532;-65
2021/05/26 08:50:27;;;;;;;7.18;3.08;;;;;;;;;;4419602;32;20342;-65
2021/05/26 08:52:52;;;;;;;9.48;2.80;;;;;;;;;;4423141;32;20551;-67
2021/05/26 08:55:18;;;;;;;8.43;3.33;;;;;;;;;;4419977;32;20887;-66
2021/05/26 08:57:43;;;;;;;7.60;2.80;;;;;;;;;;4425459;32;20272;-65
2021/05/26 09:00:09;;;;;;;13.95;2.92;;;;;;;;;;4428030;32;20442;-66
2021/05/26 09:02:34;;;;;;;8.85;2.78;;;;;;;;;;4432681;32;20210;-66
2021/05/26 09:04:59;;;;;;;5.62;1.58;;;;;;;;;;4432234;32;20480;-66
2021/05/26 09:07:32;;;;;;;5.05;2.10;;;;;;;;;;4420779;32;20273;-66
2021/05/26 09:09:58;;;;;;;6.65;2.15;;;;;;;;;;4422079;32;20280;-66
2021/05/26 09:12:28;;;;;;;8.50;2.10;;;;;;;;;;4418394;32;20222;-66
2021/05/26 09:14:54;;;;;;;8.73;2.00;;;;;;;;;;4430542;32;20138;-66
2021/05/26 09:17:19;;;;;;;6.47;2.10;;;;;;;;;;4419226;32;20203;-65
2021/05/26 09:19:45;;;;;;;4.60;2.00;;;;;;;;;;4431061;32;20137;-66
2021/05/26 09:22:11;;;;;;;10.00;2.28;;;;;;;;;;4417409;32;20200;-65
2021/05/26 09:24:36;;;;;;;5.72;2.15;;;;;;;;;;4420297;32;20146;-66
2021/05/26 09:27:03;;;;;;;5.80;2.00;;;;;;;;;;4420657;32;20145;-66
2021/05/26 09:29:34;;;;;;;5.97;2.00;;;;;;;;;;4419869;32;20214;-65
2021/05/26 09:32:19;;;;;;;5.80;1.67;;;;;;;;;;4434753;32;20530;-66
2021/05/26 09:34:46;;;;;;;4.62;1.62;;;;;;;;;;4435557;32;20191;-66
2021/05/26 09:37:13;;;;;;;5.43;1.85;;;;;;;;;;4436785;32;20184;-66
2021/05/26 09:39:44;;;;;;;6.18;1.80;;;;;;;;;;4437202;32;20545;-66
2021/05/26 09:42:36;;;;;;;12.40;2.53;;;;;;;;;;4431392;32;20176;-66
2021/05/26 09:45:04;;;;;;;3.78;1.80;;;;;;;;;;4423111;32;20130;-66
2021/05/26 09:47:42;;;;;;;6.32;2.58;;;;;;;;;;4436935;32;20172;-67
2021/05/26 09:50:14;;;;;;;6.03;2.60;;;;;;;;;;4436849;32;20135;-66
2021/05/26 09:52:57;;;;;;;7.20;3.00;;;;;;;;;;4436404;32;20219;-67
2021/05/26 09:55:24;;;;;;;5.35;2.90;;;;;;;;;;4428840;32;20395;-66
2021/05/26 09:57:50;;;;;;;8.57;3.30;;;;;;;;;;4436646;32;20595;-67
2021/05/26 10:00:16;;;;;;;4.30;3.10;;;;;;;;;;4426231;32;20169;-66
2021/05/26 10:02:41;;;;;;;6.97;3.25;;;;;;;;;;4430553;32;20273;-68
2021/05/26 10:05:06;;;;;;;5.95;3.12;;;;;;;;;;4421906;32;20195;-66
2021/05/26 10:07:32;;;;;;;8.30;3.25;;;;;;;;;;4415720;32;20319;-66
2021/05/26 10:09:58;;;;;;;7.60;3.30;;;;;;;;;;4414054;32;20719;-66
2021/05/26 10:12:23;;;;;;;4.28;2.90;;;;;;;;;;4407246;32;20808;-67
2021/05/26 10:14:49;;;;;;;8.35;4.12;;;;;;;;;;4433563;32;20142;-67
2021/05/26 10:17:19;;;;;;;4.32;2.90;;;;;;;;;;4432804;32;20559;-67
2021/05/26 10:19:45;;;;;;;4.95;2.97;;;;;;;;;;4429112;32;20179;-67
2021/05/26 10:22:10;;;;;;;5.35;3.25;;;;;;;;;;4419370;32;20130;-67
2021/05/26 10:24:35;;;;;;;5.37;3.20;;;;;;;;;;4424281;32;20180;-67
2021/05/26 10:27:01;;;;;;;5.45;3.20;;;;;;;;;;4424671;32;20180;-67
2021/05/26 10:29:29;;;;;;;5.50;2.83;;;;;;;;;;4417399;32;20138;-67
2021/05/26 10:31:55;;;;;;;7.55;2.78;;;;;;;;;;4428031;32;20618;-67
2021/05/26 10:34:20;;;;;;;5.28;3.08;;;;;;;;;;4415712;32;20288;-68
2021/05/26 10:36:50;;;;;;;4.18;3.05;;;;;;;;;;4419965;32;20551;-67
2021/05/26 10:39:28;;;;;;;5.00;3.08;;;;;;;;;;4433195;32;20214;-67
2021/05/26 10:41:53;;;;;;;3.22;2.33;;;;;;;;;;4434641;32;20565;-67
2021/05/26 10:44:19;;;;;;;2.42;1.80;;;;;;;;;;4428450;32;20181;-67
2021/05/26 10:46:48;;;;;;;2.30;1.40;;;;;;;;;;4428082;32;20257;-67
2021/05/26 10:49:13;;;;;;;2.67;1.40;;;;;;;;;;4432137;32;20498;-68
2021/05/26 10:51:54;;;;;;;3.90;2.03;;;;;;;;;;4432874;32;20169;-67
2021/05/26 10:54:38;;;;;;;2.75;1.33;;;;;;;;;;4433878;32;20199;-66
2021/05/26 10:57:03;;;;;;;3.87;0.90;;;;;;;;;;4433651;32;20210;-68
2021/05/26 10:59:28;;;;;;;1.65;0.73;;;;;;;;;;4433971;32;20160;-67
2021/05/26 11:02:05;;;;;;;4.72;0.80;;;;;;;;;;4433184;32;20173;-67
2021/05/26 11:04:35;;;;;;;1.75;0.90;;;;;;;;;;4432309;32;20183;-67
2021/05/26 11:07:20;;;;;;;1.67;0.70;;;;;;;;;;4433007;32;20444;-66
2021/05/26 11:10:02;;;;;;;2.40;0.90;;;;;;;;;;4411008;32;20230;-66
2021/05/26 11:12:28;;;;;;;3.00;0.88;;;;;;;;;;4420767;32;20212;-67
2021/05/26 11:14:54;;;;;;;1.70;0.90;;;;;;;;;;4429096;32;20458;-67
2021/05/26 11:17:21;;;;;;;1.70;0.80;;;;;;;;;;4426125;32;20292;-66
2021/05/26 11:19:46;;;;;;;2.12;1.00;;;;;;;;;;4417520;32;20145;-67
2021/05/26 11:22:15;;;;;;;1.48;0.70;;;;;;;;;;4426545;32;20211;-67
2021/05/26 11:24:44;;;;;;;2.67;0.80;;;;;;;;;;4429934;32;20600;-67
2021/05/26 11:27:17;;;;;;;1.23;0.77;;;;;;;;;;4428659;32;20273;-67
2021/05/26 11:29:42;;;;;;;1.23;0.80;;;;;;;;;;4433029;32;20264;-68
2021/05/26 11:32:09;;;;;;;2.90;1.30;;;;;;;;;;4420231;32;20220;-68
2021/05/26 11:34:35;;;;;;;3.08;0.90;;;;;;;;;;4432647;32;20559;-67
2021/05/26 11:37:01;;;;;;;2.30;1.00;;;;;;;;;;4431776;32;20543;-68
2021/05/26 11:39:29;;;;;;;1.33;0.70;;;;;;;;;;4418221;32;20172;-66
2021/05/26 11:42:14;;;;;;;3.45;0.80;;;;;;;;;;4417541;32;20292;-66
2021/05/26 11:44:40;;;;;;;4.80;1.00;;;;;;;;;;4427446;32;20538;-65
2021/05/26 11:47:06;;;;;;;3.05;1.10;;;;;;;;;;4439307;32;20238;-67
2021/05/26 11:49:37;;;;;;;2.37;1.30;;;;;;;;;;4439256;32;20171;-66
2021/05/26 11:52:02;;;;;;;2.03;1.40;;;;;;;;;;4429527;32;20173;-66
2021/05/26 11:54:27;;;;;;;4.00;1.50;;;;;;;;;;4420236;32;20279;-66
2021/05/26 11:56:59;;;;;;;6.47;1.98;;;;;;;;;;4416992;32;20250;-66
2021/05/26 11:59:25;;;;;;;4.82;1.55;;;;;;;;;;4419985;32;20183;-65
2021/05/26 12:01:51;;;;;;;3.58;1.90;;;;;;;;;;4409089;32;20174;-65
2021/05/26 12:04:17;;;;;;;5.07;1.47;;;;;;;;;;4401159;32;20193;-65
2021/05/26 12:06:43;;;;;;;3.25;1.35;;;;;;;;;;4416080;32;20293;-66
2021/05/26 12:09:08;;;;;;;2.40;1.55;;;;;;;;;;4415446;32;20133;-65
2021/05/26 12:11:33;;;;;;;4.00;1.40;;;;;;;;;;4416812;32;20575;-66
2021/05/26 12:13:58;;;;;;;2.50;1.40;;;;;;;;;;4415940;32;20293;-65
2021/05/26 12:16:23;;;;;;;3.40;1.40;;;;;;;;;;4417197;32;20693;-65
2021/05/26 12:18:53;;;;;;;3.33;1.80;;;;;;;;;;4415126;32;20172;-65
2021/05/26 12:21:20;;;;;;;4.82;1.80;;;;;;;;;;4416334;32;20197;-66
2021/05/26 12:23:45;;;;;;;5.05;1.80;;;;;;;;;;4419835;32;20149;-66
2021/05/26 12:26:27;;;;;;;3.28;1.35;;;;;;;;;;4432704;32;20153;-65
2021/05/26 12:28:56;;;;;;;3.17;1.50;;;;;;;;;;4432437;32;20180;-66
2021/05/26 12:31:21;;;;;;;4.00;1.83;;;;;;;;;;4435632;32;20141;-66
2021/05/26 12:33:48;;;;;;;4.62;1.58;;;;;;;;;;4433351;32;20274;-66
2021/05/26 12:36:13;;;;;;;2.53;1.50;;;;;;;;;;4434022;32;20220;-66
2021/05/26 12:38:41;;;;;;;7.72;1.90;;;;;;;;;;4419961;32;20545;-66
2021/05/26 12:41:25;;;;;;;5.47;2.53;;;;;;;;;;4434227;32;20423;-66
2021/05/26 12:43:51;;;;;;;3.15;1.40;;;;;;;;;;4433169;32;20209;-65
2021/05/26 12:46:35;;;;;;;3.15;1.27;;;;;;;;;;4433876;32;20134;-66
2021/05/26 12:49:00;;;;;;;4.25;1.45;;;;;;;;;;4434242;32;20180;-65
2021/05/26 12:51:25;;;;;;;5.37;1.50;;;;;;;;;;4435175;32;20322;-66
2021/05/26 12:53:57;;;;;;;3.10;1.40;;;;;;;;;;4425278;32;20172;-65
2021/05/26 12:56:22;;;;;;;2.75;1.40;;;;;;;;;;4421925;32;20160;-65
2021/05/26 12:58:47;;;;;;;4.03;1.30;;;;;;;;;;4407902;32;20157;-66
2021/05/26 13:01:13;;;;;;;4.03;1.23;;;;;;;;;;4420814;32;20245;-66
2021/05/26 13:03:38;;;;;;;4.33;1.50;;;;;;;;;;4407985;32;20257;-66
2021/05/26 13:06:16;;;;;;;3.20;1.40;;;;;;;;;;4423067;32;20245;-66
2021/05/26 13:09:02;;;;;;;5.43;1.65;;;;;;;;;;4421678;32;20222;-66
2021/05/26 13:11:37;;;;;;;3.47;1.50;;;;;;;;;;4423094;32;20134;-65
2021/05/26 13:14:03;;;;;;;3.85;1.60;;;;;;;;;;4421263;32;20218;-65
2021/05/26 13:16:28;;;;;;;6.28;1.87;;;;;;;;;;4408996;32;20158;-66
2021/05/26 13:18:53;;;;;;;4.65;1.70;;;;;;;;;;4423778;32;20199;-66
2021/05/26 13:21:18;;;;;;;3.57;1.97;;;;;;;;;;4437534;32;20236;-65
2021/05/26 13:23:43;;;;;;;5.60;1.70;;;;;;;;;;4417234;32;20289;-66
2021/05/26 13:26:09;;;;;;;3.33;1.50;;;;;;;;;;4420375;32;20261;-66
2021/05/26 13:28:38;;;;;;;2.97;1.42;;;;;;;;;;4422543;32;20162;-66
2021/05/26 13:31:04;;;;;;;4.68;1.70;;;;;;;;;;4436474;32;20254;-65
2021/05/26 13:33:29;;;;;;;6.45;1.42;;;;;;;;;;4436415;32;20449;-66
2021/05/26 13:35:56;;;;;;;3.40;1.53;;;;;;;;;;4436170;32;20236;-66
2021/05/26 13:38:21;;;;;;;2.33;1.37;;;;;;;;;;4437673;32;20240;-66
2021/05/26 13:40:47;;;;;;;3.65;1.55;;;;;;;;;;4427399;32;20452;-65
2021/05/26 13:43:12;;;;;;;4.03;1.60;;;;;;;;;;4429468;32;20221;-66
2021/05/26 13:45:38;;;;;;;3.87;1.98;;;;;;;;;;4420682;32;20157;-66
2021/05/26 13:48:07;;;;;;;6.20;1.87;;;;;;;;;;4425492;32;20512;-65
2021/05/26 13:50:33;;;;;;;5.37;1.80;;;;;;;;;;4424349;32;20153;-65
2021/05/26 13:52:59;;;;;;;3.90;1.80;;;;;;;;;;4421884;32;20513;-65
2021/05/26 13:55:25;;;;;;;5.15;1.87;;;;;;;;;;4419240;32;20133;-66
2021/05/26 13:57:51;;;;;;;2.90;1.50;;;;;;;;;;4427357;32;20231;-66
2021/05/26 14:00:17;;;;;;;5.10;1.80;;;;;;;;;;4450628;32;20129;-66
2021/05/26 14:02:43;;;;;;;2.50;1.62;;;;;;;;;;4449229;32;20176;-66
2021/05/26 14:05:09;;;;;;;3.35;1.40;;;;;;;;;;4431514;32;20229;-66
2021/05/26 14:07:34;;;;;;;4.70;1.62;;;;;;;;;;4435739;32;20410;-65
2021/05/26 14:09:59;;;;;;;5.72;1.60;;;;;;;;;;4431770;32;20204;-66
2021/05/26 14:12:25;;;;;;;2.53;1.52;;;;;;;;;;4424458;32;20485;-65
2021/05/26 14:14:50;;;;;;;6.47;1.85;;;;;;;;;;4430343;32;20137;-65
2021/05/26 14:17:15;;;;;;;4.85;2.05;;;;;;;;;;4432841;32;20137;-66
2021/05/26 14:19:40;;;;;;;4.60;1.73;;;;;;;;;;4419443;32;20315;-66
2021/05/26 14:22:08;;;;;;;4.28;1.70;;;;;;;;;;4418332;32;20195;-66
2021/05/26 14:24:33;;;;;;;4.70;2.20;;;;;;;;;;4418170;32;20160;-66
2021/05/26 14:26:58;;;;;;;7.47;2.42;;;;;;;;;;4425765;32;20307;-66
2021/05/26 14:29:24;;;;;;;5.80;2.47;;;;;;;;;;4433313;32;20552;-66
2021/05/26 14:31:49;;;;;;;3.40;2.15;;;;;;;;;;4436149;32;20261;-66